Share

العين, الإمارات العربية المتحدة

Al Ain International (OMAL) Elev 869 ft | 24.26 °N, 55.61 °E | Change Station

Current weather conditions updated 16 minutes ago

Clear
صافية
82 °F
Feels Like 81 °F
N
6
ريح متغير ريح from NNE
شروق الشمس 5:53 AM
غروب الشمس 6:40 PM
قمر الأحدب الأخير

Tomorrow is forecast to be Warmer than today.

الضغط 29.89 في
وضوح الرؤية -9999.0 أميال
سحابات
مؤشر الحرارة 81 °F
نقطة الندى 54 °F
الرطوبة 37%
Rainfall 0.00 في
عمق الثلج Not available.
الأشعة فوق البنفسجية Not available.
Pollen Not available.
جودة الهواء Not available.
Flu Activity Not available.
METAR OMAL 181900Z 02005KT CAVOK 28/12 Q1012 A2990 NOSIG

More Conditions Fewer Conditions

الضغط 29.89 في
وضوح الرؤية -9999.0 أميال
سحابات
مؤشر الحرارة 81 °F
نقطة الندى 54 °F
الرطوبة 37%
Rainfall 0.00 في
عمق الثلج Not available.
الأشعة فوق البنفسجية Not available.
Pollen Not available.
جودة الهواء Not available.
Flu Activity Not available.
METAR OMAL 181900Z 02005KT CAVOK 28/12 Q1012 A2990 NOSIG

More Conditions Fewer Conditions

10-Day Weather Forecast

Almanac

علم الفلك

Apr. 18, 2014 Rise Set
Actual Time 5:53 AM GST 6:40 PM GST
Civil Twilight 5:30 AM GST 7:03 PM GST
Nautical Twilight 5:03 AM GST 7:31 PM GST
Astronomical Twilight 4:35 AM GST 7:59 PM GST
قمر 9:48 PM GST 8:07 AM GST
Length Of Visible Light 13h 33m
طول الیوم
12h 46m
Tomorrow will be 1m 18s longer.
الأحدب الأخير, 86% of the Moon is Illuminated
هذا اليوم
الأحدب الأخير
Apr 22
الربع الآخر
Apr 29
New
May 6
الربع الاول
May 14
بدر

Today's Extremes

Country Highs Country Lows

Community

  • What's for Lunch?
    What's for Lunch?
  • SUNRISE THROUGH THE TREES.
    SUNRISE THROUGH THE TREES.
  • Dog Wood Blossoms
    Dog Wood Blossoms
  • Morning Light
    Morning Light
  • New Day
    New Day

WunderPhotos

Upload Photos

1,702,466 photos uploaded!

Nearby

جودة الهواء

Not available.

عمق الثلج

Not available.

Coastal Water Temperatures

مكان درجات الحرارة
No Stations Reporting

Earthquake Activity

City Distance Mag. Time & Date
No recent earthquake activity has been reported nearby.
Minimum magnitude displayed is 2.5.

Nearby Weather Stations

There are no personal weather stations in this area.

What do you think?

We're not finished. Please let us know what you like, what you don't like, and what you are still missing.